sensor_id;sensor_type;location;lat;lon;timestamp;P1;durP1;ratioP1;P2;durP2;ratioP2
19519;SDS011;9904;52.246;20.898;2023-04-07T00:02:05;45.57;;;21.13;;
19519;SDS011;9904;52.246;20.898;2023-04-07T00:04:32;52.87;;;21.37;;
19519;SDS011;9904;52.246;20.898;2023-04-07T00:06:58;44.63;;;22.07;;
19519;SDS011;9904;52.246;20.898;2023-04-07T00:09:25;49.23;;;22.97;;
19519;SDS011;9904;52.246;20.898;2023-04-07T00:11:52;56.47;;;22.37;;
19519;SDS011;9904;52.246;20.898;2023-04-07T00:14:18;52.57;;;22.43;;
19519;SDS011;9904;52.246;20.898;2023-04-07T00:16:45;53.57;;;23.23;;
19519;SDS011;9904;52.246;20.898;2023-04-07T00:19:11;58.53;;;23.77;;
19519;SDS011;9904;52.246;20.898;2023-04-07T00:21:38;53.93;;;24.37;;
19519;SDS011;9904;52.246;20.898;2023-04-07T00:24:05;62.20;;;23.77;;
19519;SDS011;9904;52.246;20.898;2023-04-07T00:26:31;58.83;;;24.77;;
19519;SDS011;9904;52.246;20.898;2023-04-07T00:28:58;59.10;;;23.70;;
19519;SDS011;9904;52.246;20.898;2023-04-07T00:31:25;63.30;;;24.33;;
19519;SDS011;9904;52.246;20.898;2023-04-07T00:33:52;66.67;;;24.57;;
19519;SDS011;9904;52.246;20.898;2023-04-07T00:36:19;59.53;;;25.10;;
19519;SDS011;9904;52.246;20.898;2023-04-07T00:38:45;61.40;;;24.60;;
19519;SDS011;9904;52.246;20.898;2023-04-07T00:41:12;62.77;;;24.97;;
19519;SDS011;9904;52.246;20.898;2023-04-07T00:43:38;64.93;;;25.20;;
19519;SDS011;9904;52.246;20.898;2023-04-07T00:46:05;63.67;;;25.73;;
19519;SDS011;9904;52.246;20.898;2023-04-07T00:48:32;64.73;;;25.57;;
19519;SDS011;9904;52.246;20.898;2023-04-07T00:50:59;62.27;;;25.40;;
19519;SDS011;9904;52.246;20.898;2023-04-07T00:53:25;57.47;;;24.17;;
19519;SDS011;9904;52.246;20.898;2023-04-07T00:55:52;66.57;;;24.90;;
19519;SDS011;9904;52.246;20.898;2023-04-07T00:58:18;61.67;;;25.30;;
19519;SDS011;9904;52.246;20.898;2023-04-07T01:00:50;62.20;;;24.43;;
19519;SDS011;9904;52.246;20.898;2023-04-07T01:03:25;52.53;;;23.77;;
19519;SDS011;9904;52.246;20.898;2023-04-07T01:06:01;50.80;;;22.10;;
19519;SDS011;9904;52.246;20.898;2023-04-07T01:08:41;54.77;;;23.70;;
19519;SDS011;9904;52.246;20.898;2023-04-07T01:11:27;61.00;;;24.10;;
19519;SDS011;9904;52.246;20.898;2023-04-07T01:13:58;60.97;;;24.53;;
19519;SDS011;9904;52.246;20.898;2023-04-07T01:16:26;60.10;;;24.70;;
19519;SDS011;9904;52.246;20.898;2023-04-07T01:18:58;55.47;;;24.30;;
19519;SDS011;9904;52.246;20.898;2023-04-07T01:21:28;57.23;;;24.70;;
19519;SDS011;9904;52.246;20.898;2023-04-07T01:26:44;70.60;;;26.60;;
19519;SDS011;9904;52.246;20.898;2023-04-07T01:29:25;75.70;;;28.17;;
19519;SDS011;9904;52.246;20.898;2023-04-07T01:31:53;65.20;;;26.37;;
19519;SDS011;9904;52.246;20.898;2023-04-07T01:34:21;71.87;;;28.20;;
19519;SDS011;9904;52.246;20.898;2023-04-07T01:36:49;72.53;;;28.67;;
19519;SDS011;9904;52.246;20.898;2023-04-07T01:39:16;77.17;;;29.03;;
19519;SDS011;9904;52.246;20.898;2023-04-07T01:41:43;74.50;;;26.93;;
19519;SDS011;9904;52.246;20.898;2023-04-07T01:44:10;78.53;;;29.23;;
19519;SDS011;9904;52.246;20.898;2023-04-07T01:46:37;70.83;;;28.70;;
19519;SDS011;9904;52.246;20.898;2023-04-07T01:49:04;71.47;;;27.93;;
19519;SDS011;9904;52.246;20.898;2023-04-07T01:51:31;74.17;;;28.80;;
19519;SDS011;9904;52.246;20.898;2023-04-07T01:53:58;75.40;;;29.17;;
19519;SDS011;9904;52.246;20.898;2023-04-07T01:56:25;70.27;;;28.07;;
19519;SDS011;9904;52.246;20.898;2023-04-07T01:58:52;68.67;;;28.77;;
19519;SDS011;9904;52.246;20.898;2023-04-07T02:01:19;71.07;;;29.40;;
19519;SDS011;9904;52.246;20.898;2023-04-07T02:03:48;67.30;;;28.27;;
19519;SDS011;9904;52.246;20.898;2023-04-07T02:06:21;73.73;;;29.47;;
19519;SDS011;9904;52.246;20.898;2023-04-07T02:08:49;66.73;;;28.73;;
19519;SDS011;9904;52.246;20.898;2023-04-07T02:11:19;72.07;;;29.03;;
19519;SDS011;9904;52.246;20.898;2023-04-07T02:13:47;68.30;;;29.20;;
19519;SDS011;9904;52.246;20.898;2023-04-07T02:16:14;71.10;;;30.37;;
19519;SDS011;9904;52.246;20.898;2023-04-07T02:18:42;72.17;;;29.73;;
19519;SDS011;9904;52.246;20.898;2023-04-07T02:21:10;68.83;;;28.20;;
19519;SDS011;9904;52.246;20.898;2023-04-07T02:23:37;72.87;;;29.83;;
19519;SDS011;9904;52.246;20.898;2023-04-07T02:26:04;75.13;;;30.80;;
19519;SDS011;9904;52.246;20.898;2023-04-07T02:28:30;69.10;;;28.33;;
19519;SDS011;9904;52.246;20.898;2023-04-07T02:30:57;86.47;;;29.57;;
19519;SDS011;9904;52.246;20.898;2023-04-07T02:33:23;80.80;;;31.17;;
19519;SDS011;9904;52.246;20.898;2023-04-07T02:35:50;77.27;;;32.43;;
19519;SDS011;9904;52.246;20.898;2023-04-07T02:38:17;73.97;;;30.30;;
19519;SDS011;9904;52.246;20.898;2023-04-07T02:40:43;84.77;;;31.97;;
19519;SDS011;9904;52.246;20.898;2023-04-07T02:43:10;85.67;;;33.20;;
19519;SDS011;9904;52.246;20.898;2023-04-07T02:45:36;80.63;;;31.00;;
19519;SDS011;9904;52.246;20.898;2023-04-07T02:48:03;79.27;;;31.30;;
19519;SDS011;9904;52.246;20.898;2023-04-07T02:50:30;85.20;;;31.67;;
19519;SDS011;9904;52.246;20.898;2023-04-07T02:52:56;81.47;;;32.20;;
19519;SDS011;9904;52.246;20.898;2023-04-07T02:55:23;88.87;;;33.80;;
19519;SDS011;9904;52.246;20.898;2023-04-07T02:57:49;85.87;;;32.83;;
19519;SDS011;9904;52.246;20.898;2023-04-07T03:00:16;96.60;;;35.33;;
19519;SDS011;9904;52.246;20.898;2023-04-07T03:02:43;89.07;;;34.30;;
19519;SDS011;9904;52.246;20.898;2023-04-07T03:05:09;80.37;;;33.17;;
19519;SDS011;9904;52.246;20.898;2023-04-07T03:07:36;78.57;;;32.57;;
19519;SDS011;9904;52.246;20.898;2023-04-07T03:10:03;93.37;;;35.43;;
19519;SDS011;9904;52.246;20.898;2023-04-07T03:12:29;91.90;;;34.53;;
19519;SDS011;9904;52.246;20.898;2023-04-07T03:14:56;87.20;;;35.33;;
19519;SDS011;9904;52.246;20.898;2023-04-07T03:17:22;83.67;;;34.37;;
19519;SDS011;9904;52.246;20.898;2023-04-07T03:19:49;81.47;;;33.33;;
19519;SDS011;9904;52.246;20.898;2023-04-07T03:22:17;92.67;;;34.87;;
19519;SDS011;9904;52.246;20.898;2023-04-07T03:24:43;76.47;;;33.23;;
19519;SDS011;9904;52.246;20.898;2023-04-07T03:27:10;75.30;;;31.43;;
19519;SDS011;9904;52.246;20.898;2023-04-07T03:29:36;86.60;;;34.57;;
19519;SDS011;9904;52.246;20.898;2023-04-07T03:32:03;86.13;;;34.37;;
19519;SDS011;9904;52.246;20.898;2023-04-07T03:34:30;82.00;;;34.70;;
19519;SDS011;9904;52.246;20.898;2023-04-07T03:36:56;81.37;;;33.77;;
19519;SDS011;9904;52.246;20.898;2023-04-07T03:39:23;91.33;;;34.50;;
19519;SDS011;9904;52.246;20.898;2023-04-07T03:41:49;97.67;;;36.93;;
19519;SDS011;9904;52.246;20.898;2023-04-07T03:44:17;91.70;;;35.07;;
19519;SDS011;9904;52.246;20.898;2023-04-07T03:46:43;92.30;;;35.53;;
19519;SDS011;9904;52.246;20.898;2023-04-07T03:49:10;84.23;;;35.13;;
19519;SDS011;9904;52.246;20.898;2023-04-07T03:51:37;96.03;;;35.63;;
19519;SDS011;9904;52.246;20.898;2023-04-07T03:54:03;89.27;;;35.10;;
19519;SDS011;9904;52.246;20.898;2023-04-07T03:56:30;85.73;;;36.23;;
19519;SDS011;9904;52.246;20.898;2023-04-07T03:58:57;90.90;;;36.47;;
19519;SDS011;9904;52.246;20.898;2023-04-07T04:01:24;87.27;;;37.20;;
19519;SDS011;9904;52.246;20.898;2023-04-07T04:03:50;97.30;;;38.63;;
19519;SDS011;9904;52.246;20.898;2023-04-07T04:06:18;89.13;;;35.57;;
19519;SDS011;9904;52.246;20.898;2023-04-07T04:08:44;93.93;;;36.87;;
19519;SDS011;9904;52.246;20.898;2023-04-07T04:11:10;92.27;;;36.13;;
19519;SDS011;9904;52.246;20.898;2023-04-07T04:13:37;101.27;;;38.47;;
19519;SDS011;9904;52.246;20.898;2023-04-07T04:16:04;95.83;;;37.53;;
19519;SDS011;9904;52.246;20.898;2023-04-07T04:18:30;99.00;;;36.43;;
19519;SDS011;9904;52.246;20.898;2023-04-07T04:20:57;90.77;;;36.90;;
19519;SDS011;9904;52.246;20.898;2023-04-07T04:23:24;89.40;;;36.73;;
19519;SDS011;9904;52.246;20.898;2023-04-07T04:25:50;90.00;;;38.13;;
19519;SDS011;9904;52.246;20.898;2023-04-07T04:28:17;86.83;;;36.40;;
19519;SDS011;9904;52.246;20.898;2023-04-07T04:30:43;86.57;;;37.03;;
19519;SDS011;9904;52.246;20.898;2023-04-07T04:33:10;93.10;;;36.80;;
19519;SDS011;9904;52.246;20.898;2023-04-07T04:35:36;92.77;;;37.97;;
19519;SDS011;9904;52.246;20.898;2023-04-07T04:38:03;89.90;;;37.13;;
19519;SDS011;9904;52.246;20.898;2023-04-07T04:40:29;91.90;;;37.90;;
19519;SDS011;9904;52.246;20.898;2023-04-07T04:42:57;87.73;;;36.57;;
19519;SDS011;9904;52.246;20.898;2023-04-07T04:45:23;84.57;;;35.63;;
19519;SDS011;9904;52.246;20.898;2023-04-07T04:47:50;83.93;;;35.30;;
19519;SDS011;9904;52.246;20.898;2023-04-07T04:50:16;83.63;;;34.73;;
19519;SDS011;9904;52.246;20.898;2023-04-07T04:52:43;82.00;;;35.97;;
19519;SDS011;9904;52.246;20.898;2023-04-07T04:55:09;82.33;;;35.43;;
19519;SDS011;9904;52.246;20.898;2023-04-07T04:57:39;86.40;;;35.17;;
19519;SDS011;9904;52.246;20.898;2023-04-07T05:00:06;94.40;;;37.30;;
19519;SDS011;9904;52.246;20.898;2023-04-07T05:02:33;90.53;;;37.77;;
19519;SDS011;9904;52.246;20.898;2023-04-07T05:04:59;77.70;;;35.30;;
19519;SDS011;9904;52.246;20.898;2023-04-07T05:07:26;79.97;;;35.97;;
19519;SDS011;9904;52.246;20.898;2023-04-07T05:09:53;88.67;;;38.97;;
19519;SDS011;9904;52.246;20.898;2023-04-07T05:12:19;86.93;;;36.30;;
19519;SDS011;9904;52.246;20.898;2023-04-07T05:14:46;83.40;;;36.70;;
19519;SDS011;9904;52.246;20.898;2023-04-07T05:17:13;93.93;;;37.93;;
19519;SDS011;9904;52.246;20.898;2023-04-07T05:19:40;84.93;;;37.87;;
19519;SDS011;9904;52.246;20.898;2023-04-07T05:22:06;85.27;;;37.37;;
19519;SDS011;9904;52.246;20.898;2023-04-07T05:24:33;89.23;;;37.73;;
19519;SDS011;9904;52.246;20.898;2023-04-07T05:27:00;94.07;;;37.20;;
19519;SDS011;9904;52.246;20.898;2023-04-07T05:29:27;87.73;;;38.37;;
19519;SDS011;9904;52.246;20.898;2023-04-07T05:31:53;87.40;;;37.10;;
19519;SDS011;9904;52.246;20.898;2023-04-07T05:34:20;88.40;;;39.30;;
19519;SDS011;9904;52.246;20.898;2023-04-07T05:36:47;82.23;;;38.33;;
19519;SDS011;9904;52.246;20.898;2023-04-07T05:39:14;88.87;;;38.70;;
19519;SDS011;9904;52.246;20.898;2023-04-07T05:41:41;87.83;;;38.43;;
19519;SDS011;9904;52.246;20.898;2023-04-07T05:44:07;85.63;;;37.53;;
19519;SDS011;9904;52.246;20.898;2023-04-07T05:46:34;87.73;;;38.13;;
19519;SDS011;9904;52.246;20.898;2023-04-07T05:49:00;84.97;;;37.10;;
19519;SDS011;9904;52.246;20.898;2023-04-07T05:51:45;81.27;;;36.40;;
19519;SDS011;9904;52.246;20.898;2023-04-07T05:54:14;83.77;;;36.33;;
19519;SDS011;9904;52.246;20.898;2023-04-07T05:56:41;80.50;;;36.10;;
19519;SDS011;9904;52.246;20.898;2023-04-07T05:59:07;85.47;;;36.87;;
19519;SDS011;9904;52.246;20.898;2023-04-07T06:01:35;80.00;;;35.33;;
19519;SDS011;9904;52.246;20.898;2023-04-07T06:04:01;83.73;;;38.27;;
19519;SDS011;9904;52.246;20.898;2023-04-07T06:06:31;83.80;;;37.20;;
19519;SDS011;9904;52.246;20.898;2023-04-07T06:08:58;78.47;;;36.40;;
19519;SDS011;9904;52.246;20.898;2023-04-07T06:11:25;76.90;;;36.27;;
19519;SDS011;9904;52.246;20.898;2023-04-07T06:13:52;77.37;;;35.07;;
19519;SDS011;9904;52.246;20.898;2023-04-07T06:16:19;72.03;;;34.80;;
19519;SDS011;9904;52.246;20.898;2023-04-07T06:18:46;70.03;;;33.37;;
19519;SDS011;9904;52.246;20.898;2023-04-07T06:21:13;75.03;;;34.47;;
19519;SDS011;9904;52.246;20.898;2023-04-07T06:23:40;75.43;;;34.97;;
19519;SDS011;9904;52.246;20.898;2023-04-07T06:26:10;68.00;;;33.90;;
19519;SDS011;9904;52.246;20.898;2023-04-07T06:28:37;77.37;;;34.80;;
19519;SDS011;9904;52.246;20.898;2023-04-07T06:31:04;69.17;;;34.20;;
19519;SDS011;9904;52.246;20.898;2023-04-07T06:33:31;71.40;;;34.07;;
19519;SDS011;9904;52.246;20.898;2023-04-07T06:35:58;69.40;;;35.13;;
19519;SDS011;9904;52.246;20.898;2023-04-07T06:38:25;72.47;;;35.97;;
19519;SDS011;9904;52.246;20.898;2023-04-07T06:40:51;75.30;;;35.30;;
19519;SDS011;9904;52.246;20.898;2023-04-07T06:43:18;68.97;;;33.50;;
19519;SDS011;9904;52.246;20.898;2023-04-07T06:45:45;77.13;;;35.30;;
19519;SDS011;9904;52.246;20.898;2023-04-07T06:48:12;66.87;;;34.23;;
19519;SDS011;9904;52.246;20.898;2023-04-07T06:50:38;68.40;;;32.90;;
19519;SDS011;9904;52.246;20.898;2023-04-07T06:53:05;66.83;;;33.10;;
19519;SDS011;9904;52.246;20.898;2023-04-07T06:55:31;68.43;;;33.50;;
19519;SDS011;9904;52.246;20.898;2023-04-07T06:57:58;65.80;;;33.20;;
19519;SDS011;9904;52.246;20.898;2023-04-07T07:00:25;65.87;;;33.77;;
19519;SDS011;9904;52.246;20.898;2023-04-07T07:02:55;70.00;;;33.37;;
19519;SDS011;9904;52.246;20.898;2023-04-07T07:05:22;67.07;;;33.33;;
19519;SDS011;9904;52.246;20.898;2023-04-07T07:07:49;60.33;;;32.60;;
19519;SDS011;9904;52.246;20.898;2023-04-07T07:10:16;67.20;;;34.63;;
19519;SDS011;9904;52.246;20.898;2023-04-07T07:12:45;63.53;;;32.03;;
19519;SDS011;9904;52.246;20.898;2023-04-07T07:15:12;70.13;;;34.03;;
19519;SDS011;9904;52.246;20.898;2023-04-07T07:17:39;71.13;;;32.23;;
19519;SDS011;9904;52.246;20.898;2023-04-07T07:20:05;68.77;;;31.47;;
19519;SDS011;9904;52.246;20.898;2023-04-07T07:22:33;58.30;;;29.93;;
19519;SDS011;9904;52.246;20.898;2023-04-07T07:24:59;61.77;;;31.57;;
19519;SDS011;9904;52.246;20.898;2023-04-07T07:27:26;66.50;;;31.97;;
19519;SDS011;9904;52.246;20.898;2023-04-07T07:29:53;61.57;;;31.83;;
19519;SDS011;9904;52.246;20.898;2023-04-07T07:32:19;57.40;;;30.23;;
19519;SDS011;9904;52.246;20.898;2023-04-07T07:34:46;64.17;;;31.97;;
19519;SDS011;9904;52.246;20.898;2023-04-07T07:37:13;54.37;;;29.13;;
19519;SDS011;9904;52.246;20.898;2023-04-07T07:39:39;57.40;;;29.70;;
19519;SDS011;9904;52.246;20.898;2023-04-07T07:42:06;56.47;;;29.77;;
19519;SDS011;9904;52.246;20.898;2023-04-07T07:44:33;54.80;;;29.33;;
19519;SDS011;9904;52.246;20.898;2023-04-07T07:47:00;57.97;;;29.43;;
19519;SDS011;9904;52.246;20.898;2023-04-07T07:49:26;55.53;;;29.97;;
19519;SDS011;9904;52.246;20.898;2023-04-07T07:51:53;52.40;;;27.53;;
19519;SDS011;9904;52.246;20.898;2023-04-07T07:54:20;51.37;;;28.73;;
19519;SDS011;9904;52.246;20.898;2023-04-07T07:56:46;52.47;;;27.73;;
19519;SDS011;9904;52.246;20.898;2023-04-07T07:59:13;51.00;;;27.53;;
19519;SDS011;9904;52.246;20.898;2023-04-07T08:01:42;53.00;;;28.33;;
19519;SDS011;9904;52.246;20.898;2023-04-07T08:04:09;50.27;;;27.57;;
19519;SDS011;9904;52.246;20.898;2023-04-07T08:06:36;56.97;;;28.90;;
19519;SDS011;9904;52.246;20.898;2023-04-07T08:09:03;60.70;;;28.47;;
19519;SDS011;9904;52.246;20.898;2023-04-07T08:11:31;52.17;;;28.87;;
19519;SDS011;9904;52.246;20.898;2023-04-07T08:13:58;50.80;;;27.67;;
19519;SDS011;9904;52.246;20.898;2023-04-07T08:16:24;51.93;;;27.47;;
19519;SDS011;9904;52.246;20.898;2023-04-07T08:18:52;54.30;;;27.43;;
19519;SDS011;9904;52.246;20.898;2023-04-07T08:21:19;51.07;;;27.87;;
19519;SDS011;9904;52.246;20.898;2023-04-07T08:23:46;50.77;;;27.20;;
19519;SDS011;9904;52.246;20.898;2023-04-07T08:26:13;53.27;;;27.53;;
19519;SDS011;9904;52.246;20.898;2023-04-07T08:28:40;57.07;;;28.73;;
19519;SDS011;9904;52.246;20.898;2023-04-07T08:31:06;51.53;;;27.93;;
19519;SDS011;9904;52.246;20.898;2023-04-07T08:33:33;48.70;;;26.23;;
19519;SDS011;9904;52.246;20.898;2023-04-07T08:36:00;46.53;;;26.17;;
19519;SDS011;9904;52.246;20.898;2023-04-07T08:38:26;45.10;;;24.53;;
19519;SDS011;9904;52.246;20.898;2023-04-07T08:41:03;46.10;;;25.43;;
19519;SDS011;9904;52.246;20.898;2023-04-07T08:43:34;48.43;;;25.03;;
19519;SDS011;9904;52.246;20.898;2023-04-07T08:46:04;48.03;;;24.67;;
19519;SDS011;9904;52.246;20.898;2023-04-07T08:48:31;40.37;;;22.13;;
19519;SDS011;9904;52.246;20.898;2023-04-07T08:51:05;42.27;;;22.70;;
19519;SDS011;9904;52.246;20.898;2023-04-07T08:53:39;37.27;;;21.77;;
19519;SDS011;9904;52.246;20.898;2023-04-07T08:56:12;43.17;;;21.17;;
19519;SDS011;9904;52.246;20.898;2023-04-07T08:58:39;34.33;;;21.07;;
19519;SDS011;9904;52.246;20.898;2023-04-07T09:01:06;41.07;;;21.10;;
19519;SDS011;9904;52.246;20.898;2023-04-07T09:03:34;38.93;;;19.90;;
19519;SDS011;9904;52.246;20.898;2023-04-07T09:06:01;34.87;;;19.97;;
19519;SDS011;9904;52.246;20.898;2023-04-07T09:08:29;38.57;;;21.17;;
19519;SDS011;9904;52.246;20.898;2023-04-07T09:10:56;41.57;;;22.70;;
19519;SDS011;9904;52.246;20.898;2023-04-07T09:13:23;39.33;;;21.23;;
19519;SDS011;9904;52.246;20.898;2023-04-07T09:15:50;38.93;;;22.93;;
19519;SDS011;9904;52.246;20.898;2023-04-07T09:18:17;41.63;;;22.13;;
19519;SDS011;9904;52.246;20.898;2023-04-07T09:20:54;39.77;;;22.10;;
19519;SDS011;9904;52.246;20.898;2023-04-07T09:23:34;42.83;;;22.67;;
19519;SDS011;9904;52.246;20.898;2023-04-07T09:28:53;48.17;;;22.73;;
19519;SDS011;9904;52.246;20.898;2023-04-07T09:31:21;41.07;;;22.47;;
19519;SDS011;9904;52.246;20.898;2023-04-07T09:33:48;40.50;;;23.00;;
19519;SDS011;9904;52.246;20.898;2023-04-07T09:36:15;37.90;;;22.60;;
19519;SDS011;9904;52.246;20.898;2023-04-07T09:38:43;40.30;;;21.40;;
19519;SDS011;9904;52.246;20.898;2023-04-07T09:41:11;37.77;;;21.70;;
19519;SDS011;9904;52.246;20.898;2023-04-07T09:43:40;36.60;;;22.27;;
19519;SDS011;9904;52.246;20.898;2023-04-07T09:46:10;38.07;;;22.03;;
19519;SDS011;9904;52.246;20.898;2023-04-07T09:48:41;36.00;;;20.00;;
19519;SDS011;9904;52.246;20.898;2023-04-07T09:56:10;41.63;;;21.03;;
19519;SDS011;9904;52.246;20.898;2023-04-07T09:58:38;43.07;;;21.70;;
19519;SDS011;9904;52.246;20.898;2023-04-07T10:01:06;38.70;;;21.60;;
19519;SDS011;9904;52.246;20.898;2023-04-07T10:03:35;38.17;;;21.63;;
19519;SDS011;9904;52.246;20.898;2023-04-07T10:06:03;35.50;;;21.67;;
19519;SDS011;9904;52.246;20.898;2023-04-07T10:08:32;42.90;;;22.80;;
19519;SDS011;9904;52.246;20.898;2023-04-07T10:11:01;34.57;;;21.50;;
19519;SDS011;9904;52.246;20.898;2023-04-07T10:13:30;37.43;;;20.67;;
19519;SDS011;9904;52.246;20.898;2023-04-07T10:15:57;35.23;;;20.87;;
19519;SDS011;9904;52.246;20.898;2023-04-07T10:18:27;38.63;;;21.40;;
19519;SDS011;9904;52.246;20.898;2023-04-07T10:20:59;35.13;;;22.07;;
19519;SDS011;9904;52.246;20.898;2023-04-07T10:23:42;49.80;;;23.23;;
19519;SDS011;9904;52.246;20.898;2023-04-07T10:26:24;38.57;;;20.80;;
19519;SDS011;9904;52.246;20.898;2023-04-07T10:28:54;35.97;;;20.53;;
19519;SDS011;9904;52.246;20.898;2023-04-07T10:31:25;35.57;;;20.40;;
19519;SDS011;9904;52.246;20.898;2023-04-07T10:33:52;34.80;;;20.33;;
19519;SDS011;9904;52.246;20.898;2023-04-07T10:36:20;31.10;;;18.90;;
19519;SDS011;9904;52.246;20.898;2023-04-07T10:39:29;30.30;;;18.93;;
19519;SDS011;9904;52.246;20.898;2023-04-07T10:41:40;26.53;;;16.83;;
19519;SDS011;9904;52.246;20.898;2023-04-07T10:44:07;34.20;;;17.57;;
19519;SDS011;9904;52.246;20.898;2023-04-07T10:47:20;32.67;;;16.83;;
19519;SDS011;9904;52.246;20.898;2023-04-07T10:49:21;30.97;;;17.63;;
19519;SDS011;9904;52.246;20.898;2023-04-07T10:54:37;29.10;;;18.07;;
19519;SDS011;9904;52.246;20.898;2023-04-07T10:57:08;33.33;;;17.07;;
19519;SDS011;9904;52.246;20.898;2023-04-07T10:59:41;30.40;;;16.83;;
19519;SDS011;9904;52.246;20.898;2023-04-07T11:02:30;29.13;;;15.90;;
19519;SDS011;9904;52.246;20.898;2023-04-07T11:04:58;28.70;;;16.47;;
19519;SDS011;9904;52.246;20.898;2023-04-07T11:07:41;29.20;;;16.73;;
19519;SDS011;9904;52.246;20.898;2023-04-07T11:10:12;29.50;;;16.27;;
19519;SDS011;9904;52.246;20.898;2023-04-07T11:12:41;29.23;;;14.93;;
19519;SDS011;9904;52.246;20.898;2023-04-07T11:15:15;23.83;;;14.70;;
19519;SDS011;9904;52.246;20.898;2023-04-07T11:18:05;25.40;;;14.97;;
19519;SDS011;9904;52.246;20.898;2023-04-07T11:20:43;29.47;;;14.97;;
19519;SDS011;9904;52.246;20.898;2023-04-07T11:23:14;25.30;;;14.30;;
19519;SDS011;9904;52.246;20.898;2023-04-07T11:25:42;22.67;;;13.57;;
19519;SDS011;9904;52.246;20.898;2023-04-07T11:28:10;22.40;;;13.37;;
19519;SDS011;9904;52.246;20.898;2023-04-07T11:30:47;23.53;;;13.23;;
19519;SDS011;9904;52.246;20.898;2023-04-07T11:33:25;21.90;;;12.53;;
19519;SDS011;9904;52.246;20.898;2023-04-07T11:35:56;24.57;;;12.70;;
19519;SDS011;9904;52.246;20.898;2023-04-07T11:38:25;21.73;;;12.30;;
19519;SDS011;9904;52.246;20.898;2023-04-07T11:40:53;21.00;;;12.17;;
19519;SDS011;9904;52.246;20.898;2023-04-07T11:46:07;24.07;;;13.30;;
19519;SDS011;9904;52.246;20.898;2023-04-07T11:48:35;21.97;;;13.20;;
19519;SDS011;9904;52.246;20.898;2023-04-07T11:51:03;24.37;;;13.20;;
19519;SDS011;9904;52.246;20.898;2023-04-07T11:53:33;26.83;;;14.50;;
19519;SDS011;9904;52.246;20.898;2023-04-07T11:56:07;26.53;;;14.80;;
19519;SDS011;9904;52.246;20.898;2023-04-07T11:58:35;28.90;;;15.53;;
19519;SDS011;9904;52.246;20.898;2023-04-07T12:01:03;32.03;;;17.20;;
19519;SDS011;9904;52.246;20.898;2023-04-07T12:03:35;29.57;;;16.70;;
19519;SDS011;9904;52.246;20.898;2023-04-07T12:06:03;30.73;;;16.83;;
19519;SDS011;9904;52.246;20.898;2023-04-07T12:08:37;33.33;;;17.87;;
19519;SDS011;9904;52.246;20.898;2023-04-07T12:11:03;31.57;;;19.33;;
19519;SDS011;9904;52.246;20.898;2023-04-07T12:13:30;37.37;;;20.13;;
19519;SDS011;9904;52.246;20.898;2023-04-07T12:15:58;33.63;;;21.10;;
19519;SDS011;9904;52.246;20.898;2023-04-07T12:18:25;36.57;;;21.00;;
19519;SDS011;9904;52.246;20.898;2023-04-07T12:20:52;35.03;;;21.20;;
19519;SDS011;9904;52.246;20.898;2023-04-07T12:23:18;37.27;;;21.93;;
19519;SDS011;9904;52.246;20.898;2023-04-07T12:25:45;38.57;;;21.53;;
19519;SDS011;9904;52.246;20.898;2023-04-07T12:28:12;41.37;;;22.70;;
19519;SDS011;9904;52.246;20.898;2023-04-07T12:30:38;35.87;;;21.73;;
19519;SDS011;9904;52.246;20.898;2023-04-07T12:33:05;36.43;;;22.50;;
19519;SDS011;9904;52.246;20.898;2023-04-07T12:35:32;37.90;;;21.80;;
19519;SDS011;9904;52.246;20.898;2023-04-07T12:37:59;42.80;;;21.97;;
19519;SDS011;9904;52.246;20.898;2023-04-07T12:40:25;36.77;;;22.53;;
19519;SDS011;9904;52.246;20.898;2023-04-07T12:42:52;38.27;;;21.83;;
19519;SDS011;9904;52.246;20.898;2023-04-07T12:45:19;38.33;;;21.23;;
19519;SDS011;9904;52.246;20.898;2023-04-07T12:47:45;36.33;;;22.23;;
19519;SDS011;9904;52.246;20.898;2023-04-07T12:50:12;41.17;;;24.17;;
19519;SDS011;9904;52.246;20.898;2023-04-07T12:52:39;42.33;;;22.50;;
19519;SDS011;9904;52.246;20.898;2023-04-07T12:55:06;35.77;;;22.47;;
19519;SDS011;9904;52.246;20.898;2023-04-07T12:57:33;44.53;;;24.60;;
19519;SDS011;9904;52.246;20.898;2023-04-07T13:00:00;43.53;;;21.87;;
19519;SDS011;9904;52.246;20.898;2023-04-07T13:02:26;42.90;;;23.07;;
19519;SDS011;9904;52.246;20.898;2023-04-07T13:04:53;41.20;;;22.53;;
19519;SDS011;9904;52.246;20.898;2023-04-07T13:07:20;42.87;;;22.30;;
19519;SDS011;9904;52.246;20.898;2023-04-07T13:09:47;35.17;;;21.20;;
19519;SDS011;9904;52.246;20.898;2023-04-07T13:12:13;44.43;;;21.13;;
19519;SDS011;9904;52.246;20.898;2023-04-07T13:14:40;23.83;;;14.67;;
19519;SDS011;9904;52.246;20.898;2023-04-07T13:17:22;24.40;;;13.23;;
19519;SDS011;9904;52.246;20.898;2023-04-07T13:19:49;15.33;;;7.73;;
19519;SDS011;9904;52.246;20.898;2023-04-07T13:22:16;8.40;;;5.27;;
19519;SDS011;9904;52.246;20.898;2023-04-07T13:24:47;10.83;;;5.83;;
19519;SDS011;9904;52.246;20.898;2023-04-07T13:27:13;11.80;;;6.00;;
19519;SDS011;9904;52.246;20.898;2023-04-07T13:29:40;11.10;;;5.57;;
19519;SDS011;9904;52.246;20.898;2023-04-07T13:32:07;11.50;;;5.63;;
19519;SDS011;9904;52.246;20.898;2023-04-07T13:34:35;11.07;;;5.00;;
19519;SDS011;9904;52.246;20.898;2023-04-07T13:37:03;7.33;;;4.83;;
19519;SDS011;9904;52.246;20.898;2023-04-07T13:39:30;6.93;;;4.50;;
19519;SDS011;9904;52.246;20.898;2023-04-07T13:41:57;8.67;;;4.43;;
19519;SDS011;9904;52.246;20.898;2023-04-07T13:44:24;6.77;;;3.73;;
19519;SDS011;9904;52.246;20.898;2023-04-07T13:46:52;6.27;;;3.90;;
19519;SDS011;9904;52.246;20.898;2023-04-07T13:49:20;7.20;;;3.90;;
19519;SDS011;9904;52.246;20.898;2023-04-07T13:51:47;6.33;;;3.50;;
19519;SDS011;9904;52.246;20.898;2023-04-07T13:54:15;7.50;;;3.40;;
19519;SDS011;9904;52.246;20.898;2023-04-07T13:56:42;7.20;;;3.80;;
19519;SDS011;9904;52.246;20.898;2023-04-07T13:59:09;7.13;;;3.20;;
19519;SDS011;9904;52.246;20.898;2023-04-07T14:01:36;9.27;;;3.63;;
19519;SDS011;9904;52.246;20.898;2023-04-07T14:04:05;6.70;;;3.57;;
19519;SDS011;9904;52.246;20.898;2023-04-07T14:06:32;7.60;;;3.53;;
19519;SDS011;9904;52.246;20.898;2023-04-07T14:08:59;6.40;;;3.53;;
19519;SDS011;9904;52.246;20.898;2023-04-07T14:11:26;7.33;;;3.17;;
19519;SDS011;9904;52.246;20.898;2023-04-07T14:13:53;7.63;;;3.57;;
19519;SDS011;9904;52.246;20.898;2023-04-07T14:16:22;6.93;;;3.37;;
19519;SDS011;9904;52.246;20.898;2023-04-07T14:18:49;8.73;;;3.90;;
19519;SDS011;9904;52.246;20.898;2023-04-07T14:21:16;8.90;;;4.53;;
19519;SDS011;9904;52.246;20.898;2023-04-07T14:23:43;7.43;;;3.70;;
19519;SDS011;9904;52.246;20.898;2023-04-07T14:26:10;8.13;;;4.27;;
19519;SDS011;9904;52.246;20.898;2023-04-07T14:28:37;8.13;;;4.03;;
19519;SDS011;9904;52.246;20.898;2023-04-07T14:31:04;8.63;;;3.57;;
19519;SDS011;9904;52.246;20.898;2023-04-07T14:33:31;8.73;;;3.67;;
19519;SDS011;9904;52.246;20.898;2023-04-07T14:35:58;7.03;;;3.40;;
19519;SDS011;9904;52.246;20.898;2023-04-07T14:38:24;6.77;;;3.63;;
19519;SDS011;9904;52.246;20.898;2023-04-07T14:40:52;11.07;;;6.73;;
19519;SDS011;9904;52.246;20.898;2023-04-07T14:43:19;6.67;;;3.93;;
19519;SDS011;9904;52.246;20.898;2023-04-07T14:45:45;6.73;;;4.20;;